This is the latest recevied weather packets stored in our database for station/object KB1JDX. If no packets are shown the sender has not sent any weather packets the latest 10 day(s).
| Time | Temp. | Humidity | Pressure | Rain* | Wind** | Luminosity | Snow |
|---|---|---|---|---|---|---|---|
| 1778095237 | 15° C | 10% | 1008 hPa | 0.76 mm | 2.24 m/s, 181° | - | - |
| 1778095167 | 15° C | 11% | 1007.9 hPa | 0.76 mm | 1.79 m/s, 188° | - | - |
| 1778094035 | 15.56° C | 20% | 1007.9 hPa | 0 mm | 4.02 m/s, 206° | - | - |
| 1778092835 | 15.56° C | 30% | 1008.2 hPa | 0 mm | 0 m/s | - | - |
| 1778091635 | 16.67° C | 48% | 1008.6 hPa | 0 mm | 0 m/s | - | - |
| 1778091567 | 16.67° C | 48% | 1008.6 hPa | 0 mm | 3.13 m/s, 208° | - | - |
| 1778090436 | 17.22° C | 59% | 1008.7 hPa | 0 mm | 0 m/s | - | - |
| 1778089238 | 17.78° C | 62% | 1008.8 hPa | 0 mm | 3.58 m/s, 199° | - | - |
| 1778088035 | 18.89° C | 64% | 1009 hPa | 0 mm | 7.15 m/s, 227° | - | - |
| 1778087967 | 18.89° C | 64% | 1009 hPa | 0 mm | 1.34 m/s, 211° | - | - |
| 1778086836 | 18.89° C | 64% | 1008.8 hPa | 0 mm | 0 m/s | - | - |
| 1778085637 | 19.44° C | 65% | 1009 hPa | 0 mm | 0.89 m/s, 167° | - | - |
| 1778084437 | 19.44° C | 65% | 1009.2 hPa | 0 mm | 1.79 m/s, 170° | - | - |
| 1778084367 | 19.44° C | 65% | 1009.3 hPa | 0 mm | 4.92 m/s, 202° | - | - |
| 1778083235 | 20° C | 64% | 1009.5 hPa | 0 mm | 4.47 m/s, 180° | - | - |
| 1778082037 | 20° C | 64% | 1009.4 hPa | 0 mm | 0 m/s | - | - |
| 1778080837 | 20° C | 64% | 1009.6 hPa | 0 mm | 0.89 m/s, 179° | - | - |
| 1778080767 | 20° C | 64% | 1009.6 hPa | 0 mm | 0.89 m/s, 147° | - | - |
| 1778079636 | 20° C | 64% | 1009.8 hPa | 0 mm | 0.45 m/s, 234° | - | - |
| 1778078437 | 19.44° C | 64% | 1009.8 hPa | 0 mm | 0 m/s | - | - |
| 1778077235 | 18.89° C | 64% | 1009.8 hPa | 0 mm | 0 m/s | - | - |
| 1778077167 | 18.89° C | 63% | 1009.8 hPa | 0 mm | 0.45 m/s, 184° | - | - |
| 1778076035 | 18.89° C | 63% | 1009.8 hPa | 0 mm | 3.13 m/s, 188° | - | - |
| 1778074838 | 18.33° C | 61% | 1009.7 hPa | 0 mm | 0 m/s | - | - |
| 1778073635 | 18.33° C | 60% | 1009.9 hPa | 0 mm | 0 m/s | - | - |
* Rain latest hour (hover to see other rain measurements)
** Current wind speed in m/s (hover to see current wind gust speed)